Terminal Aerodrome Forecast
Issued by NWS Louisville, KY

Home | Current Version | Previous Version | Text Only | Print | Product List | Glossary On
Versions: 1 2 3 4 5 6 7 8 9 10 11 12 13 14 15 16 17 18 19
000
FTUS43 KLMK 171728
TAFLEX
TAF
KLEX 171728Z 1718/1818 28007KT 4SM -SN OVC023
      TEMPO 1718/1722 2SM -SN BKN014
     FM172300 27006KT P6SM SKC
     FM180200 24007KT P6SM SKC
     FM180600 21009KT P6SM SKC=

USA.gov is the U.S. government's official web portal to all federal, state and local government web resources and services.